sensor_id;sensor_type;location;lat;lon;timestamp;temperature;humidity
29201;DHT22;16244;51.956;12.980;2022-09-09T00:00:13;14.10;99.90
29201;DHT22;16244;51.956;12.980;2022-09-09T00:03:02;14.20;99.90
29201;DHT22;16244;51.956;12.980;2022-09-09T00:05:45;14.30;99.90
29201;DHT22;16244;51.956;12.980;2022-09-09T00:08:42;14.30;99.90
29201;DHT22;16244;51.956;12.980;2022-09-09T00:11:29;14.30;99.90
29201;DHT22;16244;51.956;12.980;2022-09-09T00:14:01;14.30;99.90
29201;DHT22;16244;51.956;12.980;2022-09-09T00:16:50;14.30;99.90
29201;DHT22;16244;51.956;12.980;2022-09-09T00:19:49;14.30;99.90
29201;DHT22;16244;51.956;12.980;2022-09-09T00:22:23;14.30;99.90
29201;DHT22;16244;51.956;12.980;2022-09-09T00:24:53;14.30;99.90
29201;DHT22;16244;51.956;12.980;2022-09-09T00:27:26;14.30;99.90
29201;DHT22;16244;51.956;12.980;2022-09-09T00:30:12;14.30;99.90
29201;DHT22;16244;51.956;12.980;2022-09-09T00:32:59;14.30;99.90
29201;DHT22;16244;51.956;12.980;2022-09-09T00:36:09;14.30;99.90
29201;DHT22;16244;51.956;12.980;2022-09-09T00:39:01;14.20;99.90
29201;DHT22;16244;51.956;12.980;2022-09-09T00:41:41;14.20;99.90
29201;DHT22;16244;51.956;12.980;2022-09-09T00:44:31;14.20;99.90
29201;DHT22;16244;51.956;12.980;2022-09-09T00:47:25;14.10;99.90
29201;DHT22;16244;51.956;12.980;2022-09-09T00:50:27;14.10;99.90
29201;DHT22;16244;51.956;12.980;2022-09-09T00:53:24;14.10;99.90
29201;DHT22;16244;51.956;12.980;2022-09-09T00:56:13;14.10;99.90
29201;DHT22;16244;51.956;12.980;2022-09-09T00:58:42;14.00;99.90
29201;DHT22;16244;51.956;12.980;2022-09-09T01:01:25;14.00;99.90
29201;DHT22;16244;51.956;12.980;2022-09-09T01:04:19;14.00;99.90
29201;DHT22;16244;51.956;12.980;2022-09-09T01:07:12;13.90;99.90
29201;DHT22;16244;51.956;12.980;2022-09-09T01:10:17;13.90;99.90
29201;DHT22;16244;51.956;12.980;2022-09-09T01:13:05;13.90;99.90
29201;DHT22;16244;51.956;12.980;2022-09-09T01:15:54;13.90;99.90
29201;DHT22;16244;51.956;12.980;2022-09-09T01:18:23;13.90;99.90
29201;DHT22;16244;51.956;12.980;2022-09-09T01:21:02;13.90;99.90
29201;DHT22;16244;51.956;12.980;2022-09-09T01:23:50;13.90;99.90
29201;DHT22;16244;51.956;12.980;2022-09-09T01:26:51;13.90;99.90
29201;DHT22;16244;51.956;12.980;2022-09-09T01:29:33;13.90;99.90
29201;DHT22;16244;51.956;12.980;2022-09-09T01:32:02;13.80;99.90
29201;DHT22;16244;51.956;12.980;2022-09-09T01:34:36;13.80;99.90
29201;DHT22;16244;51.956;12.980;2022-09-09T01:37:07;13.80;99.90
29201;DHT22;16244;51.956;12.980;2022-09-09T01:42:20;13.80;99.90
29201;DHT22;16244;51.956;12.980;2022-09-09T01:44:48;13.80;99.90
29201;DHT22;16244;51.956;12.980;2022-09-09T01:47:15;13.80;99.90
29201;DHT22;16244;51.956;12.980;2022-09-09T01:49:43;13.80;99.90
29201;DHT22;16244;51.956;12.980;2022-09-09T01:52:10;13.80;99.90
29201;DHT22;16244;51.956;12.980;2022-09-09T01:54:38;13.70;99.90
29201;DHT22;16244;51.956;12.980;2022-09-09T01:57:11;13.80;99.90
29201;DHT22;16244;51.956;12.980;2022-09-09T02:00:00;13.70;99.90
29201;DHT22;16244;51.956;12.980;2022-09-09T02:02:32;13.70;99.90
29201;DHT22;16244;51.956;12.980;2022-09-09T02:05:13;13.70;99.90
29201;DHT22;16244;51.956;12.980;2022-09-09T02:07:47;13.70;99.90
29201;DHT22;16244;51.956;12.980;2022-09-09T02:10:19;13.70;99.90
29201;DHT22;16244;51.956;12.980;2022-09-09T02:12:49;13.70;99.90
29201;DHT22;16244;51.956;12.980;2022-09-09T02:15:23;13.70;99.90
29201;DHT22;16244;51.956;12.980;2022-09-09T02:17:57;13.70;99.90
29201;DHT22;16244;51.956;12.980;2022-09-09T02:20:26;13.70;99.90
29201;DHT22;16244;51.956;12.980;2022-09-09T02:22:56;13.70;99.90
29201;DHT22;16244;51.956;12.980;2022-09-09T02:25:26;13.60;99.90
29201;DHT22;16244;51.956;12.980;2022-09-09T02:27:54;13.60;99.90
29201;DHT22;16244;51.956;12.980;2022-09-09T02:30:22;13.60;99.90
29201;DHT22;16244;51.956;12.980;2022-09-09T02:32:51;13.60;99.90
29201;DHT22;16244;51.956;12.980;2022-09-09T02:35:24;13.60;99.90
29201;DHT22;16244;51.956;12.980;2022-09-09T02:37:54;13.50;99.90
29201;DHT22;16244;51.956;12.980;2022-09-09T02:40:25;13.60;99.90
29201;DHT22;16244;51.956;12.980;2022-09-09T02:42:54;13.60;99.90
29201;DHT22;16244;51.956;12.980;2022-09-09T02:45:24;13.50;99.90
29201;DHT22;16244;51.956;12.980;2022-09-09T02:48:01;13.50;99.90
29201;DHT22;16244;51.956;12.980;2022-09-09T02:50:33;13.50;99.90
29201;DHT22;16244;51.956;12.980;2022-09-09T02:53:07;13.50;99.90
29201;DHT22;16244;51.956;12.980;2022-09-09T02:55:39;13.50;99.90
29201;DHT22;16244;51.956;12.980;2022-09-09T02:58:09;13.50;99.90
29201;DHT22;16244;51.956;12.980;2022-09-09T03:00:39;13.40;99.90
29201;DHT22;16244;51.956;12.980;2022-09-09T03:03:07;13.50;99.90
29201;DHT22;16244;51.956;12.980;2022-09-09T03:05:35;13.40;99.90
29201;DHT22;16244;51.956;12.980;2022-09-09T03:08:04;13.40;99.90
29201;DHT22;16244;51.956;12.980;2022-09-09T03:10:32;13.40;99.90
29201;DHT22;16244;51.956;12.980;2022-09-09T03:13:00;13.40;99.90
29201;DHT22;16244;51.956;12.980;2022-09-09T03:15:28;13.30;99.90
29201;DHT22;16244;51.956;12.980;2022-09-09T03:17:59;13.30;99.90
29201;DHT22;16244;51.956;12.980;2022-09-09T03:20:27;13.20;99.90
29201;DHT22;16244;51.956;12.980;2022-09-09T03:22:56;13.20;99.90
29201;DHT22;16244;51.956;12.980;2022-09-09T03:25:23;13.20;99.90
29201;DHT22;16244;51.956;12.980;2022-09-09T03:27:51;13.10;99.90
29201;DHT22;16244;51.956;12.980;2022-09-09T03:30:20;13.20;99.90
29201;DHT22;16244;51.956;12.980;2022-09-09T03:32:47;13.10;99.90
29201;DHT22;16244;51.956;12.980;2022-09-09T03:35:16;13.00;99.90
29201;DHT22;16244;51.956;12.980;2022-09-09T03:37:43;13.00;99.90
29201;DHT22;16244;51.956;12.980;2022-09-09T03:40:11;13.00;99.90
29201;DHT22;16244;51.956;12.980;2022-09-09T03:42:39;13.00;99.90
29201;DHT22;16244;51.956;12.980;2022-09-09T03:45:08;13.00;99.90
29201;DHT22;16244;51.956;12.980;2022-09-09T03:47:36;13.00;99.90
29201;DHT22;16244;51.956;12.980;2022-09-09T03:50:04;13.00;99.90
29201;DHT22;16244;51.956;12.980;2022-09-09T03:52:36;12.90;99.90
29201;DHT22;16244;51.956;12.980;2022-09-09T03:55:04;12.90;99.90
29201;DHT22;16244;51.956;12.980;2022-09-09T03:57:32;12.80;99.90
29201;DHT22;16244;51.956;12.980;2022-09-09T04:00:02;12.80;99.90
29201;DHT22;16244;51.956;12.980;2022-09-09T04:02:29;12.80;99.90
29201;DHT22;16244;51.956;12.980;2022-09-09T04:04:56;12.80;99.90
29201;DHT22;16244;51.956;12.980;2022-09-09T04:07:23;12.90;99.90
29201;DHT22;16244;51.956;12.980;2022-09-09T04:09:52;12.90;99.90
29201;DHT22;16244;51.956;12.980;2022-09-09T04:12:20;12.90;99.90
29201;DHT22;16244;51.956;12.980;2022-09-09T04:14:48;12.90;99.90
29201;DHT22;16244;51.956;12.980;2022-09-09T04:17:15;12.90;99.90
29201;DHT22;16244;51.956;12.980;2022-09-09T04:19:43;12.90;99.90
29201;DHT22;16244;51.956;12.980;2022-09-09T04:22:10;12.80;99.90
29201;DHT22;16244;51.956;12.980;2022-09-09T04:24:37;12.90;99.90
29201;DHT22;16244;51.956;12.980;2022-09-09T04:27:05;12.80;99.90
29201;DHT22;16244;51.956;12.980;2022-09-09T04:29:33;12.80;99.90
29201;DHT22;16244;51.956;12.980;2022-09-09T04:32:00;12.80;99.90
29201;DHT22;16244;51.956;12.980;2022-09-09T04:34:27;12.80;99.90
29201;DHT22;16244;51.956;12.980;2022-09-09T04:36:55;12.80;99.90
29201;DHT22;16244;51.956;12.980;2022-09-09T04:39:22;12.80;99.90
29201;DHT22;16244;51.956;12.980;2022-09-09T04:41:50;12.80;99.90
29201;DHT22;16244;51.956;12.980;2022-09-09T04:44:18;12.80;99.90
29201;DHT22;16244;51.956;12.980;2022-09-09T04:46:46;12.80;99.90
29201;DHT22;16244;51.956;12.980;2022-09-09T04:49:13;12.80;99.90
29201;DHT22;16244;51.956;12.980;2022-09-09T04:51:40;12.70;99.90
29201;DHT22;16244;51.956;12.980;2022-09-09T04:54:07;12.70;99.90
29201;DHT22;16244;51.956;12.980;2022-09-09T04:56:34;12.60;99.90
29201;DHT22;16244;51.956;12.980;2022-09-09T04:59:02;12.70;99.90
29201;DHT22;16244;51.956;12.980;2022-09-09T05:01:31;12.70;99.90
29201;DHT22;16244;51.956;12.980;2022-09-09T05:03:58;12.70;99.90
29201;DHT22;16244;51.956;12.980;2022-09-09T05:06:25;12.70;99.90
29201;DHT22;16244;51.956;12.980;2022-09-09T05:08:53;12.80;99.90
29201;DHT22;16244;51.956;12.980;2022-09-09T05:11:21;12.70;99.90
29201;DHT22;16244;51.956;12.980;2022-09-09T05:13:49;12.70;99.90
29201;DHT22;16244;51.956;12.980;2022-09-09T05:16:17;12.70;99.90
29201;DHT22;16244;51.956;12.980;2022-09-09T05:18:46;12.70;99.90
29201;DHT22;16244;51.956;12.980;2022-09-09T05:21:15;12.80;99.90
29201;DHT22;16244;51.956;12.980;2022-09-09T05:23:42;12.80;99.90
29201;DHT22;16244;51.956;12.980;2022-09-09T05:26:13;12.90;99.90
29201;DHT22;16244;51.956;12.980;2022-09-09T05:28:40;13.00;99.90
29201;DHT22;16244;51.956;12.980;2022-09-09T05:31:09;13.00;99.90
29201;DHT22;16244;51.956;12.980;2022-09-09T05:33:39;13.10;99.90
29201;DHT22;16244;51.956;12.980;2022-09-09T05:36:10;13.10;99.90
29201;DHT22;16244;51.956;12.980;2022-09-09T05:38:39;13.20;99.90
29201;DHT22;16244;51.956;12.980;2022-09-09T05:41:07;13.20;99.90
29201;DHT22;16244;51.956;12.980;2022-09-09T05:43:36;13.20;99.90
29201;DHT22;16244;51.956;12.980;2022-09-09T05:46:04;13.30;99.90
29201;DHT22;16244;51.956;12.980;2022-09-09T05:48:33;13.40;99.90
29201;DHT22;16244;51.956;12.980;2022-09-09T05:51:01;13.50;99.90
29201;DHT22;16244;51.956;12.980;2022-09-09T05:53:30;13.60;99.90
29201;DHT22;16244;51.956;12.980;2022-09-09T05:56:01;13.70;99.90
29201;DHT22;16244;51.956;12.980;2022-09-09T05:58:29;13.80;99.90
29201;DHT22;16244;51.956;12.980;2022-09-09T06:01:04;13.90;99.90
29201;DHT22;16244;51.956;12.980;2022-09-09T06:03:34;13.90;99.90
29201;DHT22;16244;51.956;12.980;2022-09-09T06:06:03;14.00;99.90
29201;DHT22;16244;51.956;12.980;2022-09-09T06:08:33;14.00;99.90
29201;DHT22;16244;51.956;12.980;2022-09-09T06:11:04;14.10;99.90
29201;DHT22;16244;51.956;12.980;2022-09-09T06:13:32;14.10;99.90
29201;DHT22;16244;51.956;12.980;2022-09-09T06:15:59;14.20;99.90
29201;DHT22;16244;51.956;12.980;2022-09-09T06:18:26;14.20;99.90
29201;DHT22;16244;51.956;12.980;2022-09-09T06:20:55;14.30;99.90
29201;DHT22;16244;51.956;12.980;2022-09-09T06:23:22;14.30;99.90
29201;DHT22;16244;51.956;12.980;2022-09-09T06:25:51;14.40;99.90
29201;DHT22;16244;51.956;12.980;2022-09-09T06:28:18;14.50;99.90
29201;DHT22;16244;51.956;12.980;2022-09-09T06:30:45;14.60;99.90
29201;DHT22;16244;51.956;12.980;2022-09-09T06:33:13;14.60;99.90
29201;DHT22;16244;51.956;12.980;2022-09-09T06:35:40;14.80;99.90
29201;DHT22;16244;51.956;12.980;2022-09-09T06:38:07;14.90;99.90
29201;DHT22;16244;51.956;12.980;2022-09-09T06:40:35;15.00;99.90
29201;DHT22;16244;51.956;12.980;2022-09-09T06:43:04;15.00;99.90
29201;DHT22;16244;51.956;12.980;2022-09-09T06:45:31;15.00;99.90
29201;DHT22;16244;51.956;12.980;2022-09-09T06:47:59;15.10;99.90
29201;DHT22;16244;51.956;12.980;2022-09-09T06:50:26;15.20;99.90
29201;DHT22;16244;51.956;12.980;2022-09-09T06:52:53;15.30;99.90
29201;DHT22;16244;51.956;12.980;2022-09-09T06:55:20;15.30;99.90
29201;DHT22;16244;51.956;12.980;2022-09-09T06:57:47;15.40;99.90
29201;DHT22;16244;51.956;12.980;2022-09-09T07:00:17;15.50;99.90
29201;DHT22;16244;51.956;12.980;2022-09-09T07:02:44;15.50;99.90
29201;DHT22;16244;51.956;12.980;2022-09-09T07:05:12;15.60;99.90
29201;DHT22;16244;51.956;12.980;2022-09-09T07:07:41;15.80;99.90
29201;DHT22;16244;51.956;12.980;2022-09-09T07:10:09;15.90;99.90
29201;DHT22;16244;51.956;12.980;2022-09-09T07:12:36;16.00;99.90
29201;DHT22;16244;51.956;12.980;2022-09-09T07:15:04;16.10;99.90
29201;DHT22;16244;51.956;12.980;2022-09-09T07:17:32;16.20;99.90
29201;DHT22;16244;51.956;12.980;2022-09-09T07:20:00;16.10;99.90
29201;DHT22;16244;51.956;12.980;2022-09-09T07:22:28;16.10;99.90
29201;DHT22;16244;51.956;12.980;2022-09-09T07:24:55;16.20;99.90
29201;DHT22;16244;51.956;12.980;2022-09-09T07:27:22;16.20;99.90
29201;DHT22;16244;51.956;12.980;2022-09-09T07:29:49;16.20;99.90
29201;DHT22;16244;51.956;12.980;2022-09-09T07:32:16;16.30;99.90
29201;DHT22;16244;51.956;12.980;2022-09-09T07:34:46;16.30;99.90
29201;DHT22;16244;51.956;12.980;2022-09-09T07:37:13;16.30;99.90
29201;DHT22;16244;51.956;12.980;2022-09-09T07:39:42;16.20;99.90
29201;DHT22;16244;51.956;12.980;2022-09-09T07:42:10;16.30;99.90
29201;DHT22;16244;51.956;12.980;2022-09-09T07:44:38;16.20;99.90
29201;DHT22;16244;51.956;12.980;2022-09-09T07:47:07;16.20;99.90
29201;DHT22;16244;51.956;12.980;2022-09-09T07:49:34;16.30;99.90
29201;DHT22;16244;51.956;12.980;2022-09-09T07:52:03;16.40;99.90
29201;DHT22;16244;51.956;12.980;2022-09-09T07:54:30;16.40;99.90
29201;DHT22;16244;51.956;12.980;2022-09-09T07:56:58;16.40;99.90
29201;DHT22;16244;51.956;12.980;2022-09-09T07:59:25;16.50;99.90
29201;DHT22;16244;51.956;12.980;2022-09-09T08:01:52;16.60;99.90
29201;DHT22;16244;51.956;12.980;2022-09-09T08:04:21;16.60;99.90
29201;DHT22;16244;51.956;12.980;2022-09-09T08:06:50;16.70;99.90
29201;DHT22;16244;51.956;12.980;2022-09-09T08:09:20;16.80;99.90
29201;DHT22;16244;51.956;12.980;2022-09-09T08:11:50;16.90;99.90
29201;DHT22;16244;51.956;12.980;2022-09-09T08:14:18;17.10;99.90
29201;DHT22;16244;51.956;12.980;2022-09-09T08:16:47;17.30;99.90
29201;DHT22;16244;51.956;12.980;2022-09-09T08:19:15;17.90;99.90
29201;DHT22;16244;51.956;12.980;2022-09-09T08:21:44;18.60;99.90
29201;DHT22;16244;51.956;12.980;2022-09-09T08:24:12;19.40;99.90
29201;DHT22;16244;51.956;12.980;2022-09-09T08:26:43;19.80;99.90
29201;DHT22;16244;51.956;12.980;2022-09-09T08:29:11;20.10;99.90
29201;DHT22;16244;51.956;12.980;2022-09-09T08:31:41;20.40;99.90
29201;DHT22;16244;51.956;12.980;2022-09-09T08:34:09;20.80;99.90
29201;DHT22;16244;51.956;12.980;2022-09-09T08:36:39;21.20;99.90
29201;DHT22;16244;51.956;12.980;2022-09-09T08:39:07;21.50;99.90
29201;DHT22;16244;51.956;12.980;2022-09-09T08:42:12;21.60;99.90
29201;DHT22;16244;51.956;12.980;2022-09-09T08:45:00;22.10;99.90
29201;DHT22;16244;51.956;12.980;2022-09-09T08:47:35;22.40;99.90
29201;DHT22;16244;51.956;12.980;2022-09-09T08:50:22;22.70;99.90
29201;DHT22;16244;51.956;12.980;2022-09-09T08:52:57;23.10;99.90
29201;DHT22;16244;51.956;12.980;2022-09-09T08:55:33;23.60;99.90
29201;DHT22;16244;51.956;12.980;2022-09-09T08:58:09;23.60;99.90
29201;DHT22;16244;51.956;12.980;2022-09-09T09:00:44;23.70;99.90
29201;DHT22;16244;51.956;12.980;2022-09-09T09:03:21;24.20;99.90
29201;DHT22;16244;51.956;12.980;2022-09-09T09:05:56;24.30;99.90
29201;DHT22;16244;51.956;12.980;2022-09-09T09:08:33;24.50;99.90
29201;DHT22;16244;51.956;12.980;2022-09-09T09:11:04;24.80;99.90
29201;DHT22;16244;51.956;12.980;2022-09-09T09:13:38;25.10;99.90
29201;DHT22;16244;51.956;12.980;2022-09-09T09:16:13;25.20;99.90
29201;DHT22;16244;51.956;12.980;2022-09-09T09:18:44;25.60;99.90
29201;DHT22;16244;51.956;12.980;2022-09-09T09:21:14;25.90;99.90
29201;DHT22;16244;51.956;12.980;2022-09-09T09:23:49;26.00;99.90
29201;DHT22;16244;51.956;12.980;2022-09-09T09:26:18;26.10;99.90
29201;DHT22;16244;51.956;12.980;2022-09-09T09:28:50;25.90;99.90
29201;DHT22;16244;51.956;12.980;2022-09-09T09:31:18;25.80;99.90
29201;DHT22;16244;51.956;12.980;2022-09-09T09:33:49;25.50;99.90
29201;DHT22;16244;51.956;12.980;2022-09-09T09:36:19;25.80;99.90
29201;DHT22;16244;51.956;12.980;2022-09-09T09:38:55;25.80;99.90
29201;DHT22;16244;51.956;12.980;2022-09-09T09:41:30;25.80;99.90
29201;DHT22;16244;51.956;12.980;2022-09-09T09:43:59;25.60;99.90
29201;DHT22;16244;51.956;12.980;2022-09-09T09:46:28;26.00;99.90
29201;DHT22;16244;51.956;12.980;2022-09-09T09:48:59;26.40;99.90
29201;DHT22;16244;51.956;12.980;2022-09-09T09:51:29;26.90;99.90
29201;DHT22;16244;51.956;12.980;2022-09-09T09:54:17;26.70;99.90
29201;DHT22;16244;51.956;12.980;2022-09-09T09:56:46;26.40;99.90
29201;DHT22;16244;51.956;12.980;2022-09-09T09:59:32;26.50;99.90
29201;DHT22;16244;51.956;12.980;2022-09-09T10:02:17;26.40;99.90
29201;DHT22;16244;51.956;12.980;2022-09-09T10:04:45;26.30;99.90
29201;DHT22;16244;51.956;12.980;2022-09-09T10:07:15;26.20;99.90
29201;DHT22;16244;51.956;12.980;2022-09-09T10:09:43;25.90;99.90
29201;DHT22;16244;51.956;12.980;2022-09-09T10:12:20;26.10;99.90
29201;DHT22;16244;51.956;12.980;2022-09-09T10:14:58;26.50;99.90
29201;DHT22;16244;51.956;12.980;2022-09-09T10:17:30;26.60;99.90
29201;DHT22;16244;51.956;12.980;2022-09-09T10:20:18;26.70;99.90
29201;DHT22;16244;51.956;12.980;2022-09-09T10:22:51;26.60;99.90
29201;DHT22;16244;51.956;12.980;2022-09-09T10:25:33;26.80;99.90
29201;DHT22;16244;51.956;12.980;2022-09-09T10:28:20;26.90;99.90
29201;DHT22;16244;51.956;12.980;2022-09-09T10:30:59;27.40;99.90
29201;DHT22;16244;51.956;12.980;2022-09-09T10:33:34;27.60;99.90
29201;DHT22;16244;51.956;12.980;2022-09-09T10:36:12;27.60;99.90
29201;DHT22;16244;51.956;12.980;2022-09-09T10:38:41;27.30;99.90
29201;DHT22;16244;51.956;12.980;2022-09-09T10:41:18;27.00;99.90
29201;DHT22;16244;51.956;12.980;2022-09-09T10:43:57;27.30;99.90
29201;DHT22;16244;51.956;12.980;2022-09-09T10:46:41;27.40;99.90
29201;DHT22;16244;51.956;12.980;2022-09-09T10:49:19;27.50;99.90
29201;DHT22;16244;51.956;12.980;2022-09-09T10:51:53;27.60;99.90
29201;DHT22;16244;51.956;12.980;2022-09-09T10:54:33;27.30;99.90
29201;DHT22;16244;51.956;12.980;2022-09-09T10:57:08;27.10;99.90
29201;DHT22;16244;51.956;12.980;2022-09-09T10:59:41;26.90;99.90
29201;DHT22;16244;51.956;12.980;2022-09-09T11:02:15;26.90;99.90
29201;DHT22;16244;51.956;12.980;2022-09-09T11:04:49;26.90;99.90
29201;DHT22;16244;51.956;12.980;2022-09-09T11:07:25;27.00;99.90
29201;DHT22;16244;51.956;12.980;2022-09-09T11:09:59;27.10;99.90
29201;DHT22;16244;51.956;12.980;2022-09-09T11:12:30;27.10;99.90
29201;DHT22;16244;51.956;12.980;2022-09-09T11:15:03;27.10;99.90
29201;DHT22;16244;51.956;12.980;2022-09-09T11:17:40;26.90;99.90
29201;DHT22;16244;51.956;12.980;2022-09-09T11:20:12;26.40;99.90
29201;DHT22;16244;51.956;12.980;2022-09-09T11:22:44;25.90;99.90
29201;DHT22;16244;51.956;12.980;2022-09-09T11:25:16;25.60;99.90
29201;DHT22;16244;51.956;12.980;2022-09-09T11:27:55;25.40;99.90
29201;DHT22;16244;51.956;12.980;2022-09-09T11:30:31;25.00;99.90
29201;DHT22;16244;51.956;12.980;2022-09-09T11:33:17;24.70;99.90
29201;DHT22;16244;51.956;12.980;2022-09-09T11:35:58;24.30;99.90
29201;DHT22;16244;51.956;12.980;2022-09-09T11:38:31;24.20;99.90
29201;DHT22;16244;51.956;12.980;2022-09-09T11:41:02;24.10;99.90
29201;DHT22;16244;51.956;12.980;2022-09-09T11:43:38;24.00;99.90
29201;DHT22;16244;51.956;12.980;2022-09-09T11:46:06;23.70;99.90
29201;DHT22;16244;51.956;12.980;2022-09-09T11:48:37;23.70;99.90
29201;DHT22;16244;51.956;12.980;2022-09-09T11:51:06;23.90;99.90
29201;DHT22;16244;51.956;12.980;2022-09-09T11:53:35;23.90;99.90
29201;DHT22;16244;51.956;12.980;2022-09-09T11:56:09;23.90;99.90
29201;DHT22;16244;51.956;12.980;2022-09-09T11:58:42;23.90;99.90
29201;DHT22;16244;51.956;12.980;2022-09-09T12:01:14;23.90;99.90
29201;DHT22;16244;51.956;12.980;2022-09-09T12:03:45;23.90;99.90
29201;DHT22;16244;51.956;12.980;2022-09-09T12:06:16;24.00;99.90
29201;DHT22;16244;51.956;12.980;2022-09-09T12:08:50;24.00;99.90
29201;DHT22;16244;51.956;12.980;2022-09-09T12:11:27;24.00;99.90
29201;DHT22;16244;51.956;12.980;2022-09-09T12:13:55;24.10;99.90
29201;DHT22;16244;51.956;12.980;2022-09-09T12:16:32;24.10;99.90
29201;DHT22;16244;51.956;12.980;2022-09-09T12:19:06;24.10;99.90
29201;DHT22;16244;51.956;12.980;2022-09-09T12:21:46;24.10;99.90
29201;DHT22;16244;51.956;12.980;2022-09-09T12:24:19;24.00;99.90
29201;DHT22;16244;51.956;12.980;2022-09-09T12:26:51;23.90;99.90
29201;DHT22;16244;51.956;12.980;2022-09-09T12:29:26;23.80;99.90
29201;DHT22;16244;51.956;12.980;2022-09-09T12:32:00;23.80;99.90
29201;DHT22;16244;51.956;12.980;2022-09-09T12:34:36;23.80;99.90
29201;DHT22;16244;51.956;12.980;2022-09-09T12:37:13;23.70;99.90
29201;DHT22;16244;51.956;12.980;2022-09-09T12:39:45;23.60;99.90
29201;DHT22;16244;51.956;12.980;2022-09-09T12:42:19;23.40;99.90
29201;DHT22;16244;51.956;12.980;2022-09-09T12:44:55;23.30;99.90
29201;DHT22;16244;51.956;12.980;2022-09-09T12:47:26;23.20;99.90
29201;DHT22;16244;51.956;12.980;2022-09-09T12:49:55;23.10;99.90
29201;DHT22;16244;51.956;12.980;2022-09-09T12:52:26;22.90;99.90
29201;DHT22;16244;51.956;12.980;2022-09-09T12:54:56;22.90;99.90
29201;DHT22;16244;51.956;12.980;2022-09-09T12:57:24;23.00;99.90
29201;DHT22;16244;51.956;12.980;2022-09-09T13:00:05;23.00;99.90
29201;DHT22;16244;51.956;12.980;2022-09-09T13:02:32;22.90;99.90
29201;DHT22;16244;51.956;12.980;2022-09-09T13:05:14;22.90;99.90
29201;DHT22;16244;51.956;12.980;2022-09-09T13:07:42;22.80;99.90
29201;DHT22;16244;51.956;12.980;2022-09-09T13:10:12;22.90;99.90
29201;DHT22;16244;51.956;12.980;2022-09-09T13:12:39;22.90;99.90
29201;DHT22;16244;51.956;12.980;2022-09-09T13:15:15;22.80;99.90
29201;DHT22;16244;51.956;12.980;2022-09-09T13:17:53;22.70;99.90
29201;DHT22;16244;51.956;12.980;2022-09-09T13:20:23;22.60;99.90
29201;DHT22;16244;51.956;12.980;2022-09-09T13:22:52;22.60;99.90
29201;DHT22;16244;51.956;12.980;2022-09-09T13:25:23;22.50;99.90
29201;DHT22;16244;51.956;12.980;2022-09-09T13:28:00;22.50;99.90
29201;DHT22;16244;51.956;12.980;2022-09-09T13:30:30;22.40;99.90
29201;DHT22;16244;51.956;12.980;2022-09-09T13:33:17;22.40;99.90
29201;DHT22;16244;51.956;12.980;2022-09-09T13:35:49;22.30;99.90
29201;DHT22;16244;51.956;12.980;2022-09-09T13:38:17;22.20;99.90
29201;DHT22;16244;51.956;12.980;2022-09-09T13:40:55;21.90;99.90
29201;DHT22;16244;51.956;12.980;2022-09-09T13:43:25;21.60;99.90
29201;DHT22;16244;51.956;12.980;2022-09-09T13:45:54;21.30;99.90
29201;DHT22;16244;51.956;12.980;2022-09-09T13:48:22;21.30;99.90
29201;DHT22;16244;51.956;12.980;2022-09-09T13:51:02;21.30;99.90
29201;DHT22;16244;51.956;12.980;2022-09-09T13:53:31;21.30;99.90
29201;DHT22;16244;51.956;12.980;2022-09-09T13:55:59;21.30;99.90
29201;DHT22;16244;51.956;12.980;2022-09-09T13:58:27;21.20;99.90
29201;DHT22;16244;51.956;12.980;2022-09-09T14:00:54;21.00;99.90
29201;DHT22;16244;51.956;12.980;2022-09-09T14:03:21;20.80;99.90
29201;DHT22;16244;51.956;12.980;2022-09-09T14:05:49;20.80;99.90
29201;DHT22;16244;51.956;12.980;2022-09-09T14:08:23;20.80;99.90
29201;DHT22;16244;51.956;12.980;2022-09-09T14:10:51;20.80;99.90
29201;DHT22;16244;51.956;12.980;2022-09-09T14:13:18;20.80;99.90
29201;DHT22;16244;51.956;12.980;2022-09-09T14:15:48;20.80;99.90
29201;DHT22;16244;51.956;12.980;2022-09-09T14:18:15;20.90;99.90
29201;DHT22;16244;51.956;12.980;2022-09-09T14:20:42;21.00;99.90
29201;DHT22;16244;51.956;12.980;2022-09-09T14:23:11;21.00;99.90
29201;DHT22;16244;51.956;12.980;2022-09-09T14:25:43;21.10;99.90
29201;DHT22;16244;51.956;12.980;2022-09-09T14:28:11;21.20;99.90
29201;DHT22;16244;51.956;12.980;2022-09-09T14:30:39;21.20;99.90
29201;DHT22;16244;51.956;12.980;2022-09-09T14:33:07;21.30;99.90
29201;DHT22;16244;51.956;12.980;2022-09-09T14:35:35;21.40;99.90
29201;DHT22;16244;51.956;12.980;2022-09-09T14:38:03;21.50;99.90
29201;DHT22;16244;51.956;12.980;2022-09-09T14:40:31;21.60;99.90
29201;DHT22;16244;51.956;12.980;2022-09-09T14:42:59;21.70;99.90
29201;DHT22;16244;51.956;12.980;2022-09-09T14:45:35;21.80;99.90
29201;DHT22;16244;51.956;12.980;2022-09-09T14:48:18;21.80;99.90
29201;DHT22;16244;51.956;12.980;2022-09-09T14:51:07;21.90;99.90
29201;DHT22;16244;51.956;12.980;2022-09-09T14:54:02;22.10;99.90
29201;DHT22;16244;51.956;12.980;2022-09-09T14:56:31;22.20;99.90
29201;DHT22;16244;51.956;12.980;2022-09-09T14:59:00;22.20;99.90
29201;DHT22;16244;51.956;12.980;2022-09-09T15:01:28;22.20;99.90
29201;DHT22;16244;51.956;12.980;2022-09-09T15:03:58;22.10;99.90
29201;DHT22;16244;51.956;12.980;2022-09-09T15:06:26;21.90;99.90
29201;DHT22;16244;51.956;12.980;2022-09-09T15:08:55;21.80;99.90
29201;DHT22;16244;51.956;12.980;2022-09-09T15:11:26;21.80;99.90
29201;DHT22;16244;51.956;12.980;2022-09-09T15:13:54;21.80;99.90
29201;DHT22;16244;51.956;12.980;2022-09-09T15:16:24;22.00;99.90
29201;DHT22;16244;51.956;12.980;2022-09-09T15:18:53;22.10;99.90
29201;DHT22;16244;51.956;12.980;2022-09-09T15:21:23;22.30;99.90
29201;DHT22;16244;51.956;12.980;2022-09-09T15:23:51;22.20;99.90
29201;DHT22;16244;51.956;12.980;2022-09-09T15:26:18;22.10;99.90
29201;DHT22;16244;51.956;12.980;2022-09-09T15:28:48;21.90;99.90
29201;DHT22;16244;51.956;12.980;2022-09-09T15:31:17;21.70;99.90
29201;DHT22;16244;51.956;12.980;2022-09-09T15:33:47;21.50;99.90
29201;DHT22;16244;51.956;12.980;2022-09-09T15:36:15;21.40;99.90
29201;DHT22;16244;51.956;12.980;2022-09-09T15:38:43;21.30;99.90
29201;DHT22;16244;51.956;12.980;2022-09-09T15:41:10;21.30;99.90
29201;DHT22;16244;51.956;12.980;2022-09-09T15:43:38;21.10;99.90
29201;DHT22;16244;51.956;12.980;2022-09-09T15:46:23;21.00;99.90
29201;DHT22;16244;51.956;12.980;2022-09-09T15:48:52;21.00;99.90